LGLR

Larissa National Airport

Airport
ICAO code
LGLR
IATA Code
LRA
Summary
ICAO Region
EUR
ICAO Territory
Location

Larissa, Thessaly

Serving
Larissa
Elevation
207 ft
Coordinates
39° 39' 5" N , 22° 27' 46" E
KCC
Metar
LGLR 040950Z 00000KT 9999 FEW035 16/10 Q1013 BLU

Larissa State Airport "Thessaly" was the commercial airport of Larissa until 1997 when it closed for civilian traffic. Currently the airport is being used only by military aircraft of the Hellenic Air Force.

Climatology

Cool semi-arid steppe climate with hot summers (Köppen climate classification BSk)

Runways

Designator Length Width Surface Rops
8/26 2960 45 ASP No/No
08R/26L 2960 30 ASP No/No

Airport map

Aerial View

SKYbrary Partners:

Safety knowledge contributed by: